Time;durP1;ratioP1;P1;durP2;ratioP2;P2;SDS_P1;SDS_P2;PMS_P1;PMS_P2;Temp;Humidity;BMP_temperature;BMP_pressure;BME280_temperature;BME280_humidity;BME280_pressure;Samples;Min_cycle;Max_cycle;Signal;HPM_P1;HPM_P2
2022/12/11 00:00:44;;;;;;;79.00;30.48;;;;;;;-0.24;100.00;100514.03;4994480;28;20053;-80
2022/12/11 00:03:11;;;;;;;86.07;31.92;;;;;;;-0.23;100.00;100518.25;5007487;28;20077;-81
2022/12/11 00:05:39;;;;;;;83.10;31.83;;;;;;;-0.20;100.00;100516.34;5009961;28;20108;-80
2022/12/11 00:08:05;;;;;;;79.68;31.92;;;;;;;-0.19;100.00;100510.28;5009354;28;20050;-81
2022/12/11 00:10:32;;;;;;;82.28;33.47;;;;;;;-0.21;100.00;100516.44;5006913;28;20054;-81
2022/12/11 00:12:59;;;;;;;82.22;31.30;;;;;;;-0.21;100.00;100517.25;5005781;28;20111;-81
2022/12/11 00:15:27;;;;;;;85.30;31.45;;;;;;;-0.20;100.00;100520.66;5002678;28;20081;-80
2022/12/11 00:17:53;;;;;;;83.93;30.77;;;;;;;-0.17;100.00;100511.03;5004357;28;20064;-80
2022/12/11 00:20:20;;;;;;;80.88;31.20;;;;;;;-0.23;100.00;100511.38;4988816;28;20149;-81
2022/12/11 00:22:47;;;;;;;73.15;28.58;;;;;;;-0.30;100.00;100504.09;4987446;28;20074;-78
2022/12/11 00:25:14;;;;;;;72.30;28.48;;;;;;;-0.32;100.00;100511.09;4985917;28;20110;-81
2022/12/11 00:27:40;;;;;;;73.70;27.48;;;;;;;-0.37;100.00;100509.59;4988355;28;20046;-81
2022/12/11 00:30:08;;;;;;;69.00;25.38;;;;;;;-0.28;100.00;100507.41;4987228;28;20055;-82
2022/12/11 00:32:36;;;;;;;72.22;27.08;;;;;;;-0.38;100.00;100507.13;4987406;28;20046;-82
2022/12/11 00:35:03;;;;;;;69.00;26.92;;;;;;;-0.38;100.00;100502.81;4990158;28;20522;-80
2022/12/11 00:37:30;;;;;;;73.57;27.85;;;;;;;-0.33;100.00;100502.53;4989978;28;20749;-80
2022/12/11 00:39:57;;;;;;;78.80;27.20;;;;;;;-0.26;100.00;100505.59;4989179;28;20102;-82
2022/12/11 00:42:23;;;;;;;75.43;27.83;;;;;;;-0.27;100.00;100519.34;5006962;28;20066;-80
2022/12/11 00:44:51;;;;;;;79.95;28.33;;;;;;;-0.42;100.00;100480.75;5008677;28;20050;-80
2022/12/11 00:47:17;;;;;;;74.57;28.55;;;;;;;-0.34;100.00;100499.13;4989864;28;20046;-80
2022/12/11 00:49:45;;;;;;;74.70;27.38;;;;;;;-0.29;100.00;100508.34;4987593;28;20085;-82
2022/12/11 00:52:12;;;;;;;82.65;29.77;;;;;;;-0.26;100.00;100511.56;4989431;28;20043;-80
2022/12/11 00:54:40;;;;;;;81.53;28.98;;;;;;;-0.19;100.00;100514.59;4999483;28;20450;-81
2022/12/11 00:57:07;;;;;;;82.60;29.73;;;;;;;-0.13;100.00;100501.38;4995866;28;20490;-81
2022/12/11 00:59:34;;;;;;;82.18;29.55;;;;;;;-0.11;100.00;100509.81;4990102;28;20058;-80
2022/12/11 01:02:00;;;;;;;79.88;28.48;;;;;;;-0.11;100.00;100507.25;5000276;28;20476;-80
2022/12/11 01:04:27;;;;;;;80.47;30.58;;;;;;;-0.25;100.00;100513.22;4989796;28;20050;-80
2022/12/11 01:06:55;;;;;;;79.68;28.73;;;;;;;-0.26;100.00;100508.16;4989516;28;20059;-82
2022/12/11 01:12:06;;;;;;;77.28;29.52;;;;;;;-0.14;100.00;100518.56;5000814;28;20049;-81
2022/12/11 01:14:32;;;;;;;75.15;29.05;;;;;;;-0.23;100.00;100506.22;5009170;28;20057;-81
2022/12/11 01:16:59;;;;;;;76.30;30.65;;;;;;;-0.30;100.00;100506.69;4994490;28;20078;-81
2022/12/11 01:19:26;;;;;;;80.95;29.55;;;;;;;-0.31;100.00;100508.41;4989765;28;20089;-82
2022/12/11 01:21:52;;;;;;;91.70;32.05;;;;;;;-0.26;100.00;100500.44;5006011;28;20126;-83
2022/12/11 01:24:20;;;;;;;81.20;30.38;;;;;;;-0.25;100.00;100512.38;5007659;28;20043;-80
2022/12/11 01:26:47;;;;;;;83.20;29.17;;;;;;;-0.23;100.00;100513.94;5000671;28;20066;-80
2022/12/11 01:29:14;;;;;;;91.47;31.88;;;;;;;-0.23;100.00;100508.81;4996804;28;20070;-80
2022/12/11 01:31:41;;;;;;;88.93;31.73;;;;;;;-0.12;100.00;100508.19;4998528;28;20560;-80
2022/12/11 01:34:07;;;;;;;76.22;29.27;;;;;;;-0.22;100.00;100502.75;5004367;28;20096;-81
2022/12/11 01:36:34;;;;;;;85.40;30.63;;;;;;;-0.14;100.00;100504.88;5004166;28;20118;-80
2022/12/11 01:39:01;;;;;;;86.03;30.80;;;;;;;-0.28;100.00;100497.13;5003708;28;20088;-80
2022/12/11 01:41:29;;;;;;;82.95;31.27;;;;;;;-0.29;100.00;100500.63;4993890;28;20556;-80
2022/12/11 01:43:56;;;;;;;88.32;32.88;;;;;;;-0.29;100.00;100505.75;4982551;28;20138;-81
2022/12/11 01:46:23;;;;;;;91.75;32.03;;;;;;;-0.31;100.00;100511.00;4996839;28;20085;-80
2022/12/11 01:48:53;;;;;;;88.93;32.83;;;;;;;-0.31;100.00;100494.75;5018537;23;20038;-79
2022/12/11 01:51:21;;;;;;;85.25;30.92;;;;;;;-0.20;100.00;100502.66;4994680;28;20133;-78
2022/12/11 01:53:52;;;;;;;84.57;30.88;;;;;;;-0.26;100.00;100495.31;4994428;28;20073;-78
2022/12/11 01:56:19;;;;;;;91.05;33.80;;;;;;;-0.28;100.00;100487.66;4994205;28;20081;-78
2022/12/11 01:58:51;;;;;;;95.55;32.53;;;;;;;-0.16;100.00;100496.41;4991097;28;20047;-77
2022/12/11 02:01:24;;;;;;;92.50;32.05;;;;;;;-0.18;100.00;100493.09;4974252;28;20066;-78
2022/12/11 02:03:52;;;;;;;90.28;32.45;;;;;;;-0.24;100.00;100490.88;4975139;28;20145;-77
2022/12/11 02:06:32;;;;;;;80.68;29.35;;;;;;;-0.27;100.00;100484.19;4974350;28;20078;-77
2022/12/11 02:09:00;;;;;;;85.40;29.95;;;;;;;-0.27;100.00;100483.34;4975261;28;20114;-79
2022/12/11 02:11:35;;;;;;;82.65;31.02;;;;;;;-0.35;100.00;100486.38;4974628;28;20130;-77
2022/12/11 02:14:08;;;;;;;86.88;31.05;;;;;;;-0.30;100.00;100486.09;4955635;29;20138;-77
2022/12/11 02:16:45;;;;;;;93.53;32.22;;;;;;;-0.27;100.00;100484.19;4967341;28;20077;-78
2022/12/11 02:19:21;;;;;;;87.22;30.88;;;;;;;-0.21;100.00;100477.84;4974461;28;20055;-78
2022/12/11 02:21:51;;;;;;;83.32;28.40;;;;;;;-0.17;100.00;100485.31;4974544;28;20051;-76
2022/12/11 02:24:32;;;;;;;91.25;31.58;;;;;;;-0.27;100.00;100473.91;4974501;28;20137;-77
2022/12/11 02:27:20;;;;;;;84.38;30.10;;;;;;;-0.25;100.00;100490.06;4973350;28;20141;-77
2022/12/11 02:29:52;;;;;;;83.57;28.85;;;;;;;-0.37;100.00;100476.19;4974268;28;20043;-76
2022/12/11 02:32:24;;;;;;;79.50;30.02;;;;;;;-0.28;100.00;100492.00;4977501;28;20058;-77
2022/12/11 02:34:58;;;;;;;69.90;23.15;;;;;;;-0.27;100.00;100491.06;4975942;28;20047;-77
2022/12/11 02:37:28;;;;;;;77.63;28.38;;;;;;;-0.31;100.00;100476.75;4974376;28;20054;-77
2022/12/11 02:39:56;;;;;;;88.95;30.33;;;;;;;-0.24;100.00;100486.56;4974333;28;20137;-78
2022/12/11 02:42:28;;;;;;;86.45;29.23;;;;;;;-0.26;100.00;100479.88;4973977;28;20129;-76
2022/12/11 02:44:59;;;;;;;89.95;31.00;;;;;;;-0.22;100.00;100481.34;4974236;28;20141;-76
2022/12/11 02:47:29;;;;;;;86.55;30.42;;;;;;;-0.18;100.00;100478.50;4974169;28;20051;-77
2022/12/11 02:49:59;;;;;;;81.25;29.52;;;;;;;-0.25;100.00;100471.25;4974012;28;20141;-78
2022/12/11 02:52:28;;;;;;;80.97;28.33;;;;;;;-0.27;100.00;100473.06;4974571;28;20578;-78
2022/12/11 02:54:57;;;;;;;77.05;27.33;;;;;;;-0.20;100.00;100474.38;4973863;28;20129;-77
2022/12/11 02:57:29;;;;;;;78.32;29.23;;;;;;;-0.18;100.00;100472.53;4973517;28;20581;-77
2022/12/11 02:59:57;;;;;;;79.17;27.17;;;;;;;-0.20;100.00;100469.22;4974351;28;20055;-77
2022/12/11 03:02:24;;;;;;;75.75;27.67;;;;;;;-0.18;100.00;100457.09;4973603;28;20079;-78
2022/12/11 03:04:51;;;;;;;75.43;28.00;;;;;;;-0.17;100.00;100464.72;4973790;28;20116;-78
2022/12/11 03:07:22;;;;;;;74.78;28.65;;;;;;;-0.12;100.00;100467.03;4973801;28;20137;-78
2022/12/11 03:09:50;;;;;;;76.15;27.05;;;;;;;-0.11;100.00;100466.09;4973588;28;20102;-77
2022/12/11 03:12:19;;;;;;;71.53;26.27;;;;;;;-0.11;100.00;100468.69;4973482;28;20122;-77
2022/12/11 03:14:47;;;;;;;72.50;25.33;;;;;;;-0.08;100.00;100458.22;4973759;28;20082;-77
2022/12/11 03:17:19;;;;;;;66.15;25.20;;;;;;;-0.10;100.00;100460.03;4973103;28;20047;-76
2022/12/11 03:19:53;;;;;;;60.83;24.13;;;;;;;-0.10;100.00;100466.03;4973123;28;20061;-77
2022/12/11 03:22:26;;;;;;;62.92;23.85;;;;;;;-0.13;100.00;100470.50;4973189;28;20441;-77
2022/12/11 03:24:59;;;;;;;55.70;22.23;;;;;;;-0.07;100.00;100470.97;4973511;28;20561;-77
2022/12/11 03:27:30;;;;;;;59.10;23.40;;;;;;;-0.04;100.00;100469.97;4973293;28;20529;-77
2022/12/11 03:30:02;;;;;;;59.92;22.75;;;;;;;-0.08;100.00;100471.06;4973504;28;20461;-76
2022/12/11 03:32:38;;;;;;;61.27;23.97;;;;;;;-0.11;100.00;100466.09;4966208;28;20047;-77
2022/12/11 03:35:11;;;;;;;63.47;23.10;;;;;;;-0.17;100.00;100475.00;4972715;28;20552;-77
2022/12/11 03:37:40;;;;;;;56.17;22.58;;;;;;;-0.17;100.00;100469.03;4954191;29;20058;-77
2022/12/11 03:40:13;;;;;;;51.30;22.52;;;;;;;-0.16;100.00;100462.97;4953563;28;20152;-77
2022/12/11 03:42:41;;;;;;;57.60;22.15;;;;;;;-0.17;100.00;100471.63;4962933;28;20082;-77
2022/12/11 03:45:10;;;;;;;50.00;20.80;;;;;;;-0.19;100.00;100469.13;4972840;28;20572;-77
2022/12/11 03:47:41;;;;;;;45.58;20.05;;;;;;;-0.18;100.00;100467.38;4974043;28;20057;-78
2022/12/11 03:50:10;;;;;;;57.90;23.88;;;;;;;-0.24;100.00;100462.59;4973571;28;20046;-78
2022/12/11 03:52:39;;;;;;;48.10;20.67;;;;;;;-0.24;100.00;100468.56;4973805;28;20059;-78
2022/12/11 03:55:07;;;;;;;54.08;23.67;;;;;;;-0.25;100.00;100461.78;4973322;28;20477;-78
2022/12/11 03:57:36;;;;;;;51.15;22.02;;;;;;;-0.21;100.00;100462.44;4973489;28;20079;-79
2022/12/11 04:00:05;;;;;;;51.97;20.88;;;;;;;-0.22;100.00;100460.78;4972750;28;20536;-78
2022/12/11 04:02:31;;;;;;;44.38;20.42;;;;;;;-0.17;100.00;100469.88;4972492;28;20130;-78
2022/12/11 04:04:59;;;;;;;52.25;21.27;;;;;;;-0.13;100.00;100473.09;4972960;28;20589;-78
2022/12/11 04:07:27;;;;;;;46.67;19.85;;;;;;;-0.18;100.00;100462.25;4972767;28;20335;-78
2022/12/11 04:09:53;;;;;;;38.80;18.75;;;;;;;-0.19;100.00;100455.44;4972858;28;20083;-78
2022/12/11 04:12:20;;;;;;;37.67;18.83;;;;;;;-0.26;100.00;100444.69;4972768;28;20219;-78
2022/12/11 04:15:02;;;;;;;35.42;17.60;;;;;;;-0.15;100.00;100446.63;4973148;28;20137;-77
2022/12/11 04:25:50;;;;;;;46.15;20.33;;;;;;;-0.18;100.00;100431.38;4972426;28;20069;-78
2022/12/11 04:28:17;;;;;;;44.00;19.15;;;;;;;-0.20;100.00;100434.03;4972575;28;20061;-78
2022/12/11 04:30:48;;;;;;;41.78;19.25;;;;;;;-0.20;100.00;100433.22;4972757;28;20514;-78
2022/12/11 04:33:15;;;;;;;40.38;19.42;;;;;;;-0.17;100.00;100433.03;4973535;28;20133;-78
2022/12/11 04:35:43;;;;;;;43.53;19.45;;;;;;;-0.19;100.00;100440.03;4973379;28;20047;-78
2022/12/11 04:38:10;;;;;;;42.75;19.83;;;;;;;-0.12;100.00;100436.16;4972878;28;20089;-78
2022/12/11 04:40:36;;;;;;;48.17;19.80;;;;;;;-0.25;100.00;100422.38;4973862;28;20085;-79
2022/12/11 04:43:03;;;;;;;40.50;18.67;;;;;;;-0.32;100.00;100431.38;4973094;28;20506;-78
2022/12/11 04:45:30;;;;;;;41.17;19.65;;;;;;;-0.30;100.00;100432.13;4973350;28;20051;-79
2022/12/11 04:47:56;;;;;;;48.90;19.35;;;;;;;-0.29;100.00;100433.78;4973493;28;20142;-77
2022/12/11 04:50:23;;;;;;;41.22;19.10;;;;;;;-0.31;100.00;100431.28;4972686;28;20142;-77
2022/12/11 04:52:54;;;;;;;45.75;20.58;;;;;;;-0.36;100.00;100423.84;4972593;28;20138;-78
2022/12/11 04:55:21;;;;;;;40.45;19.35;;;;;;;-0.35;100.00;100430.63;4972538;28;20050;-78
2022/12/11 04:57:47;;;;;;;48.88;20.00;;;;;;;-0.35;100.00;100435.78;4972519;28;20081;-78
2022/12/11 05:00:16;;;;;;;41.85;19.63;;;;;;;-0.39;100.00;100439.44;4971844;28;20129;-78
2022/12/11 05:02:43;;;;;;;39.05;18.38;;;;;;;-0.38;100.00;100433.41;4972621;28;20123;-78
2022/12/11 05:05:10;;;;;;;40.92;19.25;;;;;;;-0.39;100.00;100439.44;4973259;28;20457;-78
2022/12/11 05:07:37;;;;;;;41.03;18.20;;;;;;;-0.39;100.00;100439.44;4973017;28;20146;-78
2022/12/11 05:10:07;;;;;;;42.47;19.17;;;;;;;-0.41;100.00;100438.72;4972421;28;20138;-78
2022/12/11 05:12:33;;;;;;;42.38;20.00;;;;;;;-0.45;100.00;100437.25;4972633;28;20057;-78
2022/12/11 05:15:00;;;;;;;41.92;18.95;;;;;;;-0.40;100.00;100430.09;4973231;28;20146;-78
2022/12/11 05:17:26;;;;;;;44.88;19.08;;;;;;;-0.33;100.00;100435.69;4975601;28;20110;-78
2022/12/11 05:19:53;;;;;;;43.15;19.42;;;;;;;-0.31;100.00;100440.75;4981931;28;20078;-77
2022/12/11 05:22:20;;;;;;;46.28;18.80;;;;;;;-0.49;100.00;100407.53;4985170;28;20043;-78
2022/12/11 05:24:46;;;;;;;43.38;19.25;;;;;;;-0.30;100.00;100437.25;4989655;28;20089;-78
2022/12/11 05:27:14;;;;;;;40.50;19.27;;;;;;;-0.34;100.00;100432.28;4992175;28;20054;-78
2022/12/11 05:29:41;;;;;;;44.78;19.23;;;;;;;-0.34;100.00;100429.72;4987612;28;20082;-78
2022/12/11 05:32:08;;;;;;;50.50;20.80;;;;;;;-0.33;100.00;100430.56;4976763;28;20050;-78
2022/12/11 05:34:34;;;;;;;40.92;19.23;;;;;;;-0.38;100.00;100425.69;4976001;28;20090;-78
2022/12/11 05:37:01;;;;;;;44.75;18.48;;;;;;;-0.48;100.00;100423.78;4976461;28;20311;-78
2022/12/11 05:39:28;;;;;;;43.53;18.55;;;;;;;-0.39;100.00;100428.34;4975909;28;20055;-78
2022/12/11 05:41:54;;;;;;;39.85;19.02;;;;;;;-0.35;100.00;100430.63;4975528;28;20125;-78
2022/12/11 05:44:22;;;;;;;44.65;20.13;;;;;;;-0.35;100.00;100435.78;4975860;28;20513;-77
2022/12/11 05:46:49;;;;;;;44.60;19.42;;;;;;;-0.37;100.00;100432.47;4975878;28;20133;-77
2022/12/11 05:49:16;;;;;;;43.28;18.90;;;;;;;-0.42;100.00;100434.50;4975724;28;20361;-77
2022/12/11 05:51:43;;;;;;;45.08;20.10;;;;;;;-0.36;100.00;100426.41;4975472;28;20061;-77
2022/12/11 05:54:10;;;;;;;44.97;19.45;;;;;;;-0.32;100.00;100433.94;4980789;28;20047;-78
2022/12/11 05:56:37;;;;;;;43.92;18.98;;;;;;;-0.40;100.00;100421.53;4976051;28;20137;-78
2022/12/11 05:59:05;;;;;;;47.05;20.27;;;;;;;-0.40;100.00;100424.94;4975467;28;20089;-78
2022/12/11 06:01:35;;;;;;;44.55;20.33;;;;;;;-0.38;100.00;100425.69;4976914;28;20093;-78
2022/12/11 06:04:02;;;;;;;46.83;20.27;;;;;;;-0.37;100.00;100431.66;4977252;28;20478;-79
2022/12/11 06:06:29;;;;;;;41.22;19.48;;;;;;;-0.41;100.00;100438.72;4977455;28;20114;-78
2022/12/11 06:08:57;;;;;;;44.67;19.95;;;;;;;-0.39;100.00;100434.31;4980722;28;20085;-78
2022/12/11 06:11:25;;;;;;;42.75;19.65;;;;;;;-0.39;100.00;100431.75;4983512;28;20078;-78
2022/12/11 06:13:52;;;;;;;46.28;20.63;;;;;;;-0.34;100.00;100434.88;4984165;28;20127;-78
2022/12/11 06:16:21;;;;;;;43.65;21.17;;;;;;;-0.32;100.00;100423.66;4986697;28;20051;-79
2022/12/11 06:18:49;;;;;;;49.55;21.35;;;;;;;-0.32;100.00;100428.81;4984566;28;20051;-78
2022/12/11 06:21:17;;;;;;;43.15;19.65;;;;;;;-0.44;100.00;100415.75;4985228;28;20098;-79
2022/12/11 06:23:45;;;;;;;49.90;20.63;;;;;;;-0.33;100.00;100415.13;4988565;28;20085;-79
2022/12/11 06:26:13;;;;;;;47.25;20.38;;;;;;;-0.33;100.00;100422.84;4985142;28;20092;-78
2022/12/11 06:28:39;;;;;;;48.88;21.23;;;;;;;-0.31;100.00;100417.59;4982388;28;20075;-76
2022/12/11 06:31:07;;;;;;;43.58;19.40;;;;;;;-0.39;100.00;100426.59;4983308;28;20077;-77
2022/12/11 06:33:34;;;;;;;47.13;21.73;;;;;;;-0.31;100.00;100426.16;4984328;28;20117;-77
2022/12/11 06:36:04;;;;;;;44.72;21.38;;;;;;;-0.42;100.00;100433.66;4982154;28;20134;-76
2022/12/11 06:38:31;;;;;;;45.08;20.45;;;;;;;-0.37;100.00;100432.47;4978701;28;20086;-76
2022/12/11 06:40:58;;;;;;;52.08;21.33;;;;;;;-0.39;100.00;100431.75;4978905;28;20051;-76
2022/12/11 06:43:25;;;;;;;49.72;22.52;;;;;;;-0.41;100.00;100433.56;4978403;28;20051;-75
2022/12/11 06:45:52;;;;;;;47.60;21.30;;;;;;;-0.63;100.00;100430.63;4978274;28;20081;-75
2022/12/11 06:48:19;;;;;;;48.90;21.05;;;;;;;-0.55;100.00;100423.31;4978472;28;20097;-77
2022/12/11 06:50:46;;;;;;;49.45;22.48;;;;;;;-0.45;100.00;100436.41;4981238;28;20054;-78
2022/12/11 06:53:15;;;;;;;45.47;20.42;;;;;;;-0.46;100.00;100438.16;4981695;28;20043;-76
2022/12/11 06:55:42;;;;;;;45.22;20.40;;;;;;;-0.43;100.00;100447.44;4980744;28;20078;-77
2022/12/11 06:58:10;;;;;;;50.00;20.95;;;;;;;-0.48;100.00;100445.16;4979114;28;20720;-77
2022/12/11 07:00:38;;;;;;;51.40;21.48;;;;;;;-0.55;100.00;100438.72;4978215;28;20058;-76
2022/12/11 07:03:05;;;;;;;46.25;19.80;;;;;;;-0.45;100.00;100434.66;4980956;28;20050;-77
2022/12/11 07:05:31;;;;;;;48.10;20.38;;;;;;;-0.46;100.00;100447.63;4979658;28;20110;-77
2022/12/11 07:07:58;;;;;;;48.92;20.75;;;;;;;-0.49;100.00;100448.66;4979167;28;20133;-77
2022/12/11 07:10:26;;;;;;;52.10;20.42;;;;;;;-0.45;100.00;100444.94;4981250;28;20111;-78
2022/12/11 07:12:54;;;;;;;49.13;20.85;;;;;;;-0.44;100.00;100441.47;4980240;28;20038;-77
2022/12/11 07:15:20;;;;;;;48.00;22.50;;;;;;;-0.47;100.00;100439.06;4980969;28;20077;-78
2022/12/11 07:17:47;;;;;;;48.38;20.70;;;;;;;-0.50;100.00;100452.13;4984817;28;20054;-78
2022/12/11 07:20:14;;;;;;;50.95;22.10;;;;;;;-0.45;100.00;100449.25;4984905;28;20074;-78
2022/12/11 07:22:40;;;;;;;53.40;21.98;;;;;;;-0.41;100.00;100456.72;4983995;28;20077;-79
2022/12/11 07:25:08;;;;;;;50.72;21.70;;;;;;;-0.43;100.00;100453.41;4984900;28;20051;-78
2022/12/11 07:27:36;;;;;;;50.35;21.55;;;;;;;-0.44;100.00;100454.31;4984897;28;20081;-78
2022/12/11 07:30:03;;;;;;;51.53;19.60;;;;;;;-0.44;100.00;100456.06;4982972;28;20054;-79
2022/12/11 07:32:29;;;;;;;47.63;20.48;;;;;;;-0.45;100.00;100450.09;4986083;28;20047;-77
2022/12/11 07:34:58;;;;;;;47.33;19.85;;;;;;;-0.38;100.00;100450.56;4985717;28;20093;-79
2022/12/11 07:37:24;;;;;;;46.97;20.83;;;;;;;-0.51;100.00;100453.06;4987202;28;20074;-80
2022/12/11 07:39:51;;;;;;;49.17;21.58;;;;;;;-0.54;100.00;100454.97;4985972;28;20062;-79
2022/12/11 07:42:18;;;;;;;52.80;22.52;;;;;;;-0.57;100.00;100453.41;4984618;28;22358;-78
2022/12/11 07:44:45;;;;;;;50.67;21.42;;;;;;;-0.60;100.00;100451.00;4989470;28;20089;-78
2022/12/11 07:47:12;;;;;;;55.05;21.33;;;;;;;-0.59;100.00;100457.81;4987631;28;20051;-78
2022/12/11 07:49:39;;;;;;;53.53;22.98;;;;;;;-0.57;100.00;100445.69;5002758;23;20070;-79
2022/12/11 07:52:05;;;;;;;46.45;18.88;;;;;;;-0.60;100.00;100450.19;4964999;29;20055;-79
2022/12/11 07:54:32;;;;;;;47.17;21.05;;;;;;;-0.57;100.00;100445.69;4966626;29;20110;-79
2022/12/11 07:56:59;;;;;;;50.92;21.45;;;;;;;-0.58;100.00;100438.91;4967330;29;20082;-79
2022/12/11 07:59:25;;;;;;;52.75;21.40;;;;;;;-0.59;100.00;100447.53;4961286;29;20059;-79
2022/12/11 08:01:53;;;;;;;48.78;20.35;;;;;;;-0.60;100.00;100450.19;4947039;29;20539;-80
2022/12/11 08:04:20;;;;;;;47.40;20.42;;;;;;;-0.62;100.00;100447.72;4946853;29;20043;-79
2022/12/11 08:06:46;;;;;;;49.22;21.08;;;;;;;-0.56;100.00;100447.34;4946455;29;20083;-77
2022/12/11 08:09:14;;;;;;;48.72;20.52;;;;;;;-0.55;100.00;100445.59;4940172;29;20138;-78
2022/12/11 08:11:41;;;;;;;47.33;20.60;;;;;;;-0.47;100.00;100446.78;4940544;29;20475;-78
2022/12/11 08:14:08;;;;;;;51.25;20.48;;;;;;;-0.44;100.00;100446.59;4943360;29;20035;-80
2022/12/11 08:16:35;;;;;;;45.58;19.48;;;;;;;-0.44;100.00;100440.63;4945006;29;20051;-79
2022/12/11 08:19:03;;;;;;;47.83;21.38;;;;;;;-0.30;100.00;100447.53;4945082;29;20051;-80
2022/12/11 08:21:30;;;;;;;49.88;21.35;;;;;;;-0.26;100.00;100439.56;4946910;29;20052;-80
2022/12/11 08:23:58;;;;;;;52.78;22.27;;;;;;;-0.26;100.00;100446.44;4946173;29;20069;-80
2022/12/11 08:26:28;;;;;;;50.40;20.77;;;;;;;-0.28;100.00;100443.13;4946321;29;20043;-79
2022/12/11 08:28:55;;;;;;;52.35;22.55;;;;;;;-0.26;100.00;100439.56;4941558;29;20320;-79
2022/12/11 08:31:23;;;;;;;43.38;20.20;;;;;;;-0.36;100.00;100429.00;4942656;29;20143;-81
2022/12/11 08:33:51;;;;;;;43.88;20.58;;;;;;;-0.28;100.00;100438.81;4938548;29;20079;-81
2022/12/11 08:36:21;;;;;;;45.70;20.02;;;;;;;-0.15;100.00;100439.75;4941437;29;20083;-81
2022/12/11 08:38:48;;;;;;;47.00;20.90;;;;;;;-0.22;100.00;100432.50;4942401;29;20048;-81
2022/12/11 08:41:17;;;;;;;42.47;19.65;;;;;;;-0.14;100.00;100428.53;4941242;29;20134;-82
2022/12/11 08:43:56;;;;;;;47.30;19.13;;;;;;;-0.18;100.00;100427.06;4938617;29;20079;-81
2022/12/11 08:46:25;;;;;;;39.45;18.73;;;;;;;-0.14;100.00;100420.00;4941684;29;20074;-80
2022/12/11 08:48:52;;;;;;;40.25;19.45;;;;;;;-0.08;100.00;100414.47;4939256;29;20366;-81
2022/12/11 08:51:35;;;;;;;40.75;19.13;;;;;;;0.06;100.00;100424.72;4942209;29;20071;-81
2022/12/11 08:54:03;;;;;;;43.28;19.13;;;;;;;0.06;100.00;100406.72;4939237;29;20044;-81
2022/12/11 08:56:30;;;;;;;43.13;20.23;;;;;;;0.07;100.00;100415.28;4942761;29;20080;-82
2022/12/11 08:58:59;;;;;;;46.10;20.70;;;;;;;0.15;100.00;100431.88;4937782;29;20454;-80
2022/12/11 09:01:27;;;;;;;44.58;20.90;;;;;;;0.19;100.00;100417.09;4937515;29;20044;-79
2022/12/11 09:03:55;;;;;;;39.58;19.25;;;;;;;0.25;100.00;100425.25;4949150;29;20074;-81
2022/12/11 09:06:24;;;;;;;41.85;19.95;;;;;;;0.32;100.00;100421.38;4947039;29;20048;-80
2022/12/11 09:08:57;;;;;;;46.58;20.35;;;;;;;0.37;100.00;100422.84;4949492;29;20051;-80
2022/12/11 09:11:26;;;;;;;42.30;19.55;;;;;;;0.37;100.00;100422.84;4951527;29;20077;-81
2022/12/11 09:13:53;;;;;;;38.35;19.40;;;;;;;0.38;100.00;100424.50;4958269;29;20130;-82
2022/12/11 09:16:36;;;;;;;42.30;19.67;;;;;;;0.40;100.00;100426.06;4946695;29;20043;-80
2022/12/11 09:19:03;;;;;;;39.17;18.80;;;;;;;0.42;100.00;100423.38;4949938;28;20062;-81
2022/12/11 09:21:30;;;;;;;43.05;19.80;;;;;;;0.36;100.00;100414.31;4968058;29;20138;-82
2022/12/11 09:24:02;;;;;;;43.28;19.88;;;;;;;0.41;100.00;100422.56;4954792;29;20131;-81
2022/12/11 09:26:30;;;;;;;43.05;19.50;;;;;;;0.28;100.00;100411.38;4949185;29;20115;-82
2022/12/11 09:28:57;;;;;;;38.38;18.35;;;;;;;0.34;100.00;100413.56;4947844;29;20079;-81
2022/12/11 09:31:25;;;;;;;42.88;19.70;;;;;;;0.36;100.00;100416.06;4948441;29;20496;-80
2022/12/11 09:33:55;;;;;;;42.08;19.88;;;;;;;0.42;100.00;100426.78;4946895;29;20527;-80
2022/12/11 09:36:22;;;;;;;43.55;19.80;;;;;;;0.45;100.00;100415.47;4948802;29;20071;-80
2022/12/11 09:38:49;;;;;;;43.50;20.30;;;;;;;0.50;100.00;100418.56;4949861;29;20526;-80
2022/12/11 09:41:39;;;;;;;41.22;19.58;;;;;;;0.53;100.00;100415.78;4950426;29;20052;-81
2022/12/11 09:44:16;;;;;;;44.75;20.30;;;;;;;0.60;100.00;100409.34;4922647;29;20066;-81
2022/12/11 09:46:44;;;;;;;42.67;18.67;;;;;;;0.59;100.00;100412.81;4950848;29;20279;-80
2022/12/11 09:49:22;;;;;;;40.25;19.27;;;;;;;0.54;100.00;100407.97;4950067;29;20052;-82
2022/12/11 09:51:53;;;;;;;49.85;20.25;;;;;;;0.55;100.00;100409.63;4964933;29;20043;-81
2022/12/11 09:54:19;;;;;;;42.42;19.60;;;;;;;0.55;100.00;100411.38;4966385;29;20055;-82
2022/12/11 09:56:58;;;;;;;44.60;20.88;;;;;;;0.54;100.00;100417.44;4949971;29;20054;-80
2022/12/11 09:59:32;;;;;;;40.38;19.23;;;;;;;0.47;100.00;100403.34;4951528;29;20079;-81
2022/12/11 10:02:10;;;;;;;38.42;18.67;;;;;;;0.50;100.00;100409.09;4951955;29;20055;-81
2022/12/11 10:04:46;;;;;;;41.38;18.73;;;;;;;0.51;100.00;100402.19;4953111;29;20058;-81
2022/12/11 10:07:17;;;;;;;42.78;19.58;;;;;;;0.52;100.00;100406.41;4954390;29;20257;-82
2022/12/11 10:09:51;;;;;;;44.75;19.52;;;;;;;0.48;100.00;100400.63;4936179;29;20051;-81
2022/12/11 10:12:32;;;;;;;43.42;19.58;;;;;;;0.51;100.00;100402.19;4944899;29;20051;-81
2022/12/11 10:15:16;;;;;;;42.92;20.08;;;;;;;0.51;100.00;100397.03;4952441;29;20052;-80
2022/12/11 10:17:44;;;;;;;42.70;19.70;;;;;;;0.55;100.00;100396.75;4937601;29;20056;-81
2022/12/11 10:20:20;;;;;;;41.53;19.27;;;;;;;0.59;100.00;100393.06;4936316;29;20051;-82
2022/12/11 10:22:48;;;;;;;41.00;20.20;;;;;;;0.55;100.00;100375.31;4930361;29;20067;-80
2022/12/11 10:25:20;;;;;;;45.92;20.38;;;;;;;0.61;100.00;100390.38;4941768;29;20071;-78
2022/12/11 10:27:49;;;;;;;47.53;20.63;;;;;;;0.49;100.00;100380.88;4947840;29;20051;-79
2022/12/11 10:30:18;;;;;;;44.63;20.13;;;;;;;0.55;100.00;100386.44;4949856;29;20075;-79
2022/12/11 10:32:55;;;;;;;39.95;19.42;;;;;;;0.44;100.00;100377.78;4948005;29;20055;-79
2022/12/11 10:35:31;;;;;;;45.75;21.13;;;;;;;0.24;100.00;100367.00;4947815;29;20055;-78
2022/12/11 10:38:09;;;;;;;43.35;20.35;;;;;;;0.55;100.00;100365.03;4945206;29;20568;-81
2022/12/11 10:40:40;;;;;;;43.35;19.77;;;;;;;0.43;100.00;100371.00;4948776;29;20182;-82
2022/12/11 10:43:09;;;;;;;41.75;20.85;;;;;;;0.50;100.00;100367.06;4948110;29;20051;-80
2022/12/11 10:45:36;;;;;;;49.72;21.88;;;;;;;0.54;100.00;100363.38;4948634;29;20158;-79
2022/12/11 10:48:04;;;;;;;47.78;22.60;;;;;;;0.62;100.00;100366.28;4947989;29;20241;-81
2022/12/11 10:50:34;;;;;;;52.28;22.90;;;;;;;0.69;100.00;100357.25;4946691;29;20079;-79
2022/12/11 10:53:02;;;;;;;54.08;22.13;;;;;;;0.79;100.00;100366.03;4940094;29;20047;-80
2022/12/11 10:55:33;;;;;;;56.28;23.10;;;;;;;0.69;100.00;100359.81;4945905;29;20055;-82
2022/12/11 10:58:03;;;;;;;55.78;22.83;;;;;;;0.62;100.00;100356.00;4943383;29;20067;-79
2022/12/11 11:00:36;;;;;;;54.13;23.13;;;;;;;0.74;100.00;100360.34;4943804;29;20574;-82
2022/12/11 11:03:18;;;;;;;57.15;22.73;;;;;;;0.79;100.00;100363.47;4945822;29;20062;-83
2022/12/11 11:05:45;;;;;;;53.78;22.27;;;;;;;0.81;100.00;100356.44;4951634;29;20058;-81
2022/12/11 11:08:14;;;;;;;54.40;22.35;;;;;;;0.82;100.00;100352.94;4942171;29;20123;-82
2022/12/11 11:10:52;;;;;;;56.88;23.15;;;;;;;0.79;100.00;100347.19;4944550;29;20067;-80
2022/12/11 11:13:23;;;;;;;53.80;23.45;;;;;;;0.77;100.00;100349.84;4944763;29;20110;-79
2022/12/11 11:15:59;;;;;;;56.25;23.30;;;;;;;0.83;100.00;100352.03;4943366;29;20048;-79
2022/12/11 11:18:28;;;;;;;63.88;24.85;;;;;;;0.76;100.00;100350.78;4943874;29;20082;-79
2022/12/11 11:20:55;;;;;;;57.35;24.42;;;;;;;0.64;100.00;100344.66;4950524;29;20160;-81
2022/12/11 11:23:24;;;;;;;63.10;25.95;;;;;;;0.63;100.00;100334.47;4946040;29;20067;-80